createdAt,value
2019-05-17T00:02:33.148Z,8.60
2019-05-17T00:05:38.247Z,8.57
2019-05-17T00:08:43.453Z,8.85
2019-05-17T00:11:48.530Z,8.62
2019-05-17T00:14:53.696Z,8.64
2019-05-17T00:17:58.769Z,8.56
2019-05-17T00:21:04.081Z,8.43
2019-05-17T00:24:09.382Z,8.44
2019-05-17T00:27:14.621Z,8.45
2019-05-17T00:30:20.411Z,8.45
2019-05-17T00:33:27.248Z,8.45
2019-05-17T00:36:33.693Z,8.43
2019-05-17T00:39:38.860Z,8.57
2019-05-17T00:42:46.428Z,8.38
2019-05-17T00:45:50.846Z,8.29
2019-05-17T00:48:57.319Z,8.32
2019-05-17T00:52:02.574Z,8.30
2019-05-17T00:55:08.076Z,8.33
2019-05-17T00:58:13.335Z,8.21
2019-05-17T01:01:18.546Z,8.32
2019-05-17T01:04:23.709Z,8.30
2019-05-17T01:07:28.931Z,8.40
2019-05-17T01:10:34.071Z,8.38
2019-05-17T01:13:39.382Z,8.31
2019-05-17T01:16:44.543Z,8.26
2019-05-17T01:19:50.785Z,8.31
2019-05-17T01:22:56.664Z,8.23
2019-05-17T01:26:02.023Z,8.21
2019-05-17T01:29:07.300Z,8.22
2019-05-17T01:32:12.557Z,8.24
2019-05-17T01:35:17.736Z,8.37
2019-05-17T01:38:22.879Z,8.25
2019-05-17T01:41:28.030Z,8.16
2019-05-17T01:44:33.171Z,8.15
2019-05-17T01:47:38.350Z,8.37
2019-05-17T01:50:43.506Z,8.35
2019-05-17T01:53:48.715Z,8.22
2019-05-17T01:56:53.860Z,8.37
2019-05-17T01:59:59.019Z,8.14
2019-05-17T02:03:06.786Z,8.10
2019-05-17T02:06:11.135Z,8.13
2019-05-17T02:09:32.304Z,8.17
2019-05-17T02:12:23.182Z,8.11
2019-05-17T02:15:28.311Z,8.08
2019-05-17T02:18:33.545Z,8.14
2019-05-17T02:21:39.084Z,8.18
2019-05-17T02:24:46.448Z,8.13
2019-05-17T02:27:52.682Z,8.09
2019-05-17T02:30:58.339Z,8.04
2019-05-17T02:34:03.962Z,8.11
2019-05-17T02:37:09.163Z,8.14
2019-05-17T02:40:15.263Z,8.05
2019-05-17T02:43:23.345Z,8.13
2019-05-17T02:46:27.591Z,8.14
2019-05-17T02:49:33.272Z,8.12
2019-05-17T02:52:38.498Z,8.19
2019-05-17T02:55:43.746Z,8.19
2019-05-17T02:58:48.896Z,8.10
2019-05-17T03:01:54.058Z,8.13
2019-05-17T03:04:59.202Z,8.19
2019-05-17T03:08:04.770Z,8.22
2019-05-17T03:11:13.480Z,8.17
2019-05-17T03:14:22.983Z,8.19
2019-05-17T03:17:28.315Z,8.15
2019-05-17T03:20:33.612Z,8.13
2019-05-17T03:23:38.793Z,8.16
2019-05-17T03:26:44.006Z,8.18
2019-05-17T03:29:49.186Z,8.17
2019-05-17T03:32:56.739Z,8.20
2019-05-17T03:36:06.554Z,8.18
2019-05-17T03:39:09.265Z,8.17
2019-05-17T03:42:14.494Z,8.17
2019-05-17T03:45:22.568Z,8.20
2019-05-17T03:48:26.572Z,8.17
2019-05-17T03:51:33.257Z,8.16
2019-05-17T03:54:38.670Z,8.13
2019-05-17T03:57:44.488Z,8.23
2019-05-17T04:00:49.668Z,8.30
2019-05-17T04:03:54.794Z,8.25
2019-05-17T04:07:03.147Z,8.27
2019-05-17T04:10:07.892Z,8.44
2019-05-17T04:13:13.214Z,8.30
2019-05-17T04:16:18.467Z,8.41
2019-05-17T04:19:23.626Z,8.47
2019-05-17T04:22:28.784Z,8.59
2019-05-17T04:25:34.105Z,8.49
2019-05-17T04:28:39.246Z,8.37
2019-05-17T04:31:44.613Z,8.51
2019-05-17T04:34:52.399Z,8.67
2019-05-17T04:37:57.302Z,8.60
2019-05-17T04:41:03.478Z,8.54
2019-05-17T04:44:08.784Z,8.71
2019-05-17T04:47:14.053Z,8.88
2019-05-17T04:50:19.186Z,8.86
2019-05-17T04:53:24.363Z,8.71
2019-05-17T04:56:29.451Z,8.79
2019-05-17T04:59:34.660Z,8.80
2019-05-17T05:02:39.881Z,8.98
2019-05-17T05:05:45.032Z,9.06
2019-05-17T05:08:52.797Z,8.77
2019-05-17T05:12:04.816Z,8.95
2019-05-17T05:15:04.166Z,9.01
2019-05-17T05:18:12.896Z,8.92
2019-05-17T05:21:16.542Z,8.96
2019-05-17T05:24:22.350Z,9.04
2019-05-17T05:27:28.657Z,9.10
2019-05-17T05:30:33.856Z,9.18
2019-05-17T05:33:38.929Z,9.24
2019-05-17T05:36:44.205Z,9.17
2019-05-17T05:39:51.733Z,9.13
2019-05-17T05:42:56.142Z,9.12
2019-05-17T05:46:02.560Z,9.17
2019-05-17T05:49:08.048Z,9.22
2019-05-17T05:52:13.366Z,9.24
2019-05-17T05:55:19.529Z,9.39
2019-05-17T05:58:24.723Z,9.26
2019-05-17T06:01:32.407Z,9.21
2019-05-17T06:04:36.691Z,9.32
2019-05-17T06:07:42.162Z,9.40
2019-05-17T06:10:47.318Z,9.43
2019-05-17T06:13:52.496Z,9.46
2019-05-17T06:16:57.768Z,9.68
2019-05-17T06:20:03.104Z,9.83
2019-05-17T06:23:08.390Z,9.97
2019-05-17T06:26:13.616Z,10.00
2019-05-17T06:29:18.748Z,10.13
2019-05-17T06:32:23.964Z,9.84
2019-05-17T06:35:32.361Z,9.82
2019-05-17T06:38:37.073Z,9.84
2019-05-17T06:41:42.168Z,9.92
2019-05-17T06:44:47.363Z,9.90
2019-05-17T06:47:52.496Z,9.96
2019-05-17T06:50:57.679Z,10.01
2019-05-17T06:54:02.811Z,10.18
2019-05-17T06:57:12.779Z,10.36
2019-05-17T07:00:20.893Z,10.32
2019-05-17T07:03:24.677Z,10.65
2019-05-17T07:06:34.466Z,10.79
2019-05-17T07:09:40.120Z,10.94
2019-05-17T07:12:55.937Z,10.83
2019-05-17T07:15:52.374Z,11.01
2019-05-17T07:18:59.611Z,10.90
2019-05-17T07:22:05.284Z,11.18
2019-05-17T07:25:11.878Z,11.25
2019-05-17T07:28:17.153Z,11.24
2019-05-17T07:31:23.211Z,11.28
2019-05-17T07:34:30.889Z,11.28
2019-05-17T07:37:35.580Z,11.86
2019-05-17T07:40:40.724Z,11.83
2019-05-17T07:43:45.884Z,11.59
2019-05-17T07:46:51.845Z,11.93
2019-05-17T07:49:57.173Z,11.64
2019-05-17T07:53:02.340Z,11.88
2019-05-17T07:56:10.097Z,11.49
2019-05-17T07:59:14.662Z,11.18
2019-05-17T08:02:19.939Z,11.22
2019-05-17T08:05:26.219Z,11.53
2019-05-17T08:08:31.562Z,12.14
2019-05-17T08:11:36.681Z,12.81
2019-05-17T08:14:41.912Z,12.83
2019-05-17T08:17:47.100Z,12.93
2019-05-17T08:20:52.229Z,12.90
2019-05-17T08:23:59.878Z,12.67
2019-05-17T08:27:04.347Z,12.77
2019-05-17T08:30:10.764Z,12.89
2019-05-17T08:33:16.047Z,13.04
2019-05-17T08:36:21.371Z,12.95
2019-05-17T08:39:26.594Z,12.34
2019-05-17T08:42:31.714Z,12.87
2019-05-17T08:45:37.125Z,13.67
2019-05-17T08:48:42.277Z,13.69
2019-05-17T08:51:49.939Z,14.10
2019-05-17T08:54:54.464Z,14.58
2019-05-17T08:58:01.038Z,14.70
2019-05-17T09:01:06.311Z,14.09
2019-05-17T09:04:11.649Z,13.70
2019-05-17T09:07:16.807Z,14.26
2019-05-17T09:10:23.542Z,14.00
2019-05-17T09:13:29.838Z,14.69
2019-05-17T09:16:35.157Z,14.62
2019-05-17T09:19:40.254Z,14.73
2019-05-17T09:22:45.569Z,14.03
2019-05-17T09:25:50.661Z,14.54
2019-05-17T09:28:55.846Z,14.50
2019-05-17T09:32:00.896Z,14.60
2019-05-17T09:35:06.362Z,15.42
2019-05-17T09:38:11.525Z,15.48
2019-05-17T09:41:16.769Z,14.37
2019-05-17T09:44:22.163Z,14.56
2019-05-17T09:47:29.939Z,14.76
2019-05-17T09:50:34.318Z,15.25
2019-05-17T09:53:40.114Z,15.91
2019-05-17T09:56:45.336Z,16.23
2019-05-17T09:59:50.525Z,15.85
2019-05-17T10:02:56.247Z,16.18
2019-05-17T10:06:01.654Z,16.84
2019-05-17T10:09:09.444Z,16.06
2019-05-17T10:12:13.935Z,15.62
2019-05-17T10:15:20.667Z,15.74
2019-05-17T10:18:26.098Z,15.80
2019-05-17T10:21:31.337Z,15.72
2019-05-17T10:24:41.584Z,15.05
2019-05-17T10:27:44.085Z,14.87
2019-05-17T10:30:52.200Z,14.89
2019-05-17T10:33:58.329Z,15.02
2019-05-17T10:37:03.447Z,16.02
2019-05-17T10:40:10.746Z,16.15
2019-05-17T10:43:16.090Z,16.17
2019-05-17T10:46:21.193Z,15.86
2019-05-17T10:49:26.468Z,15.94
2019-05-17T10:52:31.973Z,16.23
2019-05-17T10:55:39.483Z,15.87
2019-05-17T10:58:44.194Z,16.05
2019-05-17T11:01:50.188Z,16.37
2019-05-17T11:04:56.640Z,16.33
2019-05-17T11:08:01.768Z,15.99
2019-05-17T11:11:07.320Z,16.08
2019-05-17T11:14:12.520Z,16.01
2019-05-17T11:17:17.724Z,15.90
2019-05-17T11:20:23.565Z,16.51
2019-05-17T11:23:28.821Z,17.04
2019-05-17T11:26:33.968Z,16.82
2019-05-17T11:29:39.127Z,17.19
2019-05-17T11:32:44.503Z,16.88
2019-05-17T11:35:49.731Z,17.17
2019-05-17T11:38:54.948Z,17.09
2019-05-17T11:42:00.115Z,17.14
2019-05-17T11:45:05.647Z,17.45
2019-05-17T11:48:10.889Z,17.44
2019-05-17T11:51:16.051Z,17.04
2019-05-17T11:54:21.249Z,17.17
2019-05-17T11:57:26.392Z,16.76
2019-05-17T12:00:31.654Z,17.02
2019-05-17T12:03:36.833Z,17.25
2019-05-17T12:06:42.053Z,17.05
2019-05-17T12:09:47.246Z,17.65
2019-05-17T12:12:52.515Z,17.88
2019-05-17T12:15:57.687Z,17.73
2019-05-17T12:19:02.919Z,17.99
2019-05-17T12:22:08.028Z,17.99
2019-05-17T12:25:13.668Z,17.82
2019-05-17T12:28:18.857Z,18.36
2019-05-17T12:31:24.100Z,18.16
2019-05-17T12:34:29.246Z,18.91
2019-05-17T12:37:34.557Z,18.91
2019-05-17T12:40:39.769Z,18.14
2019-05-17T12:43:44.903Z,17.82
2019-05-17T12:46:50.123Z,17.79
2019-05-17T12:49:55.477Z,17.86
2019-05-17T12:53:00.672Z,18.55
2019-05-17T12:56:05.858Z,18.10
2019-05-17T12:59:11.177Z,17.87
2019-05-17T13:02:16.266Z,17.57
2019-05-17T13:05:21.441Z,17.40
2019-05-17T13:08:26.620Z,17.80
2019-05-17T13:11:31.793Z,17.81
2019-05-17T13:14:36.957Z,18.26
2019-05-17T13:17:42.209Z,18.40
2019-05-17T13:20:47.457Z,18.32
2019-05-17T13:23:52.606Z,18.05
2019-05-17T13:26:57.819Z,18.03
2019-05-17T13:30:02.993Z,17.99
2019-05-17T13:33:08.237Z,18.18
2019-05-17T13:36:13.492Z,19.22
2019-05-17T13:39:18.699Z,18.80
2019-05-17T13:42:23.928Z,19.49
2019-05-17T13:45:29.095Z,19.44
2019-05-17T13:48:34.281Z,19.44
2019-05-17T13:51:39.455Z,19.37
2019-05-17T13:54:44.610Z,20.01
2019-05-17T13:57:49.849Z,20.53
2019-05-17T14:00:54.992Z,20.36
2019-05-17T14:04:00.262Z,20.27
2019-05-17T14:07:05.397Z,20.31
2019-05-17T14:10:26.236Z,20.18
2019-05-17T14:13:17.702Z,20.68
2019-05-17T14:16:22.797Z,20.42
2019-05-17T14:19:28.041Z,21.17
2019-05-17T14:22:35.906Z,20.82
2019-05-17T14:25:40.166Z,19.92
2019-05-17T14:28:45.318Z,19.54
2019-05-17T14:31:50.700Z,19.64
2019-05-17T14:34:55.830Z,19.64
2019-05-17T14:38:01.000Z,19.46
2019-05-17T14:41:08.309Z,20.07
2019-05-17T14:44:13.060Z,20.34
2019-05-17T14:47:18.265Z,20.45
2019-05-17T14:50:23.476Z,20.59
2019-05-17T14:53:28.600Z,20.22
2019-05-17T14:56:33.758Z,20.44
2019-05-17T14:59:38.924Z,20.27
2019-05-17T15:02:45.174Z,20.06
2019-05-17T15:05:50.455Z,19.44
2019-05-17T15:08:55.715Z,19.44
2019-05-17T15:12:00.938Z,19.05
2019-05-17T15:15:06.925Z,18.81
2019-05-17T15:18:12.269Z,19.25
2019-05-17T15:21:17.852Z,19.69
2019-05-17T15:24:23.060Z,19.85
2019-05-17T15:27:28.191Z,20.47
2019-05-17T15:30:33.304Z,20.70
2019-05-17T15:33:38.448Z,20.66
2019-05-17T15:36:43.641Z,20.19
2019-05-17T15:39:48.800Z,20.32
2019-05-17T15:42:54.054Z,20.02
2019-05-17T15:45:59.339Z,19.95
2019-05-17T15:49:04.507Z,19.83
2019-05-17T15:52:09.754Z,20.05
2019-05-17T15:55:15.386Z,20.27
2019-05-17T15:58:23.197Z,20.46
2019-05-17T16:01:29.270Z,20.25
2019-05-17T16:04:34.547Z,20.70
2019-05-17T16:07:39.710Z,20.28
2019-05-17T16:10:44.888Z,20.34
2019-05-17T16:13:50.101Z,20.04
2019-05-17T16:16:55.258Z,20.03
2019-05-17T16:20:00.408Z,20.06
2019-05-17T16:23:05.571Z,19.67
2019-05-17T16:26:10.952Z,20.32
2019-05-17T16:29:16.194Z,20.73
2019-05-17T16:32:21.456Z,20.83
2019-05-17T16:35:26.709Z,20.72
2019-05-17T16:38:31.878Z,20.42
2019-05-17T16:41:37.123Z,20.98
2019-05-17T16:44:42.352Z,20.22
2019-05-17T16:47:47.465Z,20.89
2019-05-17T16:50:52.639Z,21.03
2019-05-17T16:53:57.801Z,21.28
2019-05-17T16:57:02.945Z,21.60
2019-05-17T17:00:24.633Z,21.19
2019-05-17T17:03:43.831Z,20.84
2019-05-17T17:06:36.716Z,20.87
2019-05-17T17:09:42.305Z,21.33
2019-05-17T17:12:47.693Z,21.99
2019-05-17T17:15:52.851Z,22.52
2019-05-17T17:18:58.019Z,21.49
2019-05-17T17:22:03.200Z,21.81
2019-05-17T17:25:08.560Z,21.62
2019-05-17T17:28:13.846Z,21.07
2019-05-17T17:31:18.970Z,20.07
2019-05-17T17:34:24.140Z,19.71
2019-05-17T17:37:29.358Z,19.20
2019-05-17T17:40:34.556Z,18.98
2019-05-17T17:43:39.779Z,18.75
2019-05-17T17:46:44.936Z,18.37
2019-05-17T17:49:50.147Z,18.24
2019-05-17T17:52:55.289Z,17.92
2019-05-17T17:56:00.517Z,17.75
2019-05-17T17:59:05.783Z,17.57
2019-05-17T18:02:11.098Z,17.60
2019-05-17T18:05:16.830Z,17.69
2019-05-17T18:08:22.209Z,17.52
2019-05-17T18:11:27.340Z,17.37
2019-05-17T18:14:32.540Z,17.20
2019-05-17T18:17:39.478Z,17.16
2019-05-17T18:20:44.647Z,17.02
2019-05-17T18:23:49.975Z,16.82
2019-05-17T18:26:56.650Z,16.58
2019-05-17T18:30:01.970Z,16.34
2019-05-17T18:33:07.672Z,16.16
2019-05-17T18:36:13.622Z,16.04
2019-05-17T18:39:18.969Z,15.95
2019-05-17T18:42:24.435Z,15.72
2019-05-17T18:45:30.167Z,15.63
2019-05-17T18:48:35.548Z,15.57
2019-05-17T18:51:40.726Z,15.55
2019-05-17T18:54:46.100Z,15.56
2019-05-17T18:57:51.299Z,15.53
2019-05-17T19:00:56.437Z,15.79
2019-05-17T19:04:01.718Z,15.54
2019-05-17T19:07:06.877Z,15.48
2019-05-17T19:10:12.695Z,15.44
2019-05-17T19:13:18.066Z,15.39
2019-05-17T19:16:23.213Z,15.25
2019-05-17T19:19:28.451Z,15.34
2019-05-17T19:22:33.663Z,15.36
2019-05-17T19:25:38.831Z,15.63
2019-05-17T19:28:44.016Z,15.65
2019-05-17T19:31:49.197Z,15.28
2019-05-17T19:34:54.484Z,14.85
2019-05-17T19:37:59.849Z,14.82
2019-05-17T19:41:04.968Z,14.53
2019-05-17T19:44:10.280Z,14.18
2019-05-17T19:47:15.429Z,13.96
2019-05-17T19:50:20.737Z,13.97
2019-05-17T19:53:26.838Z,13.94
2019-05-17T19:56:31.973Z,13.73
2019-05-17T19:59:37.148Z,13.71
2019-05-17T20:02:42.265Z,13.85
2019-05-17T20:05:47.501Z,13.88
2019-05-17T20:08:53.266Z,13.91
2019-05-17T20:11:58.449Z,13.74
2019-05-17T20:15:16.918Z,13.76
2019-05-17T20:18:11.939Z,13.72
2019-05-17T20:21:17.151Z,13.63
2019-05-17T20:24:22.448Z,13.77
2019-05-17T20:27:27.716Z,13.52
2019-05-17T20:30:32.878Z,13.35
2019-05-17T20:33:38.024Z,13.20
2019-05-17T20:36:43.284Z,13.22
2019-05-17T20:39:48.482Z,13.23
2019-05-17T20:42:53.623Z,13.26
2019-05-17T20:45:58.821Z,13.22
2019-05-17T20:49:03.978Z,13.25
2019-05-17T20:52:09.375Z,13.25
2019-05-17T20:55:14.709Z,13.06
2019-05-17T20:58:19.850Z,13.19
2019-05-17T21:01:25.009Z,13.00
2019-05-17T21:04:30.204Z,12.93
2019-05-17T21:07:35.432Z,12.83
2019-05-17T21:10:40.765Z,13.07
2019-05-17T21:13:45.956Z,12.87
2019-05-17T21:16:51.221Z,12.80
2019-05-17T21:19:56.340Z,12.79
2019-05-17T21:23:01.528Z,12.74
2019-05-17T21:26:06.715Z,12.65
2019-05-17T21:29:11.903Z,12.60
2019-05-17T21:32:17.096Z,12.60
2019-05-17T21:35:22.233Z,12.56
2019-05-17T21:38:27.402Z,12.30
2019-05-17T21:41:32.645Z,12.33
2019-05-17T21:44:37.781Z,12.37
2019-05-17T21:47:43.021Z,12.25
2019-05-17T21:50:48.167Z,12.18
2019-05-17T21:53:53.317Z,12.18
2019-05-17T21:56:58.426Z,12.20
2019-05-17T22:00:03.839Z,12.11
2019-05-17T22:03:10.618Z,11.97
2019-05-17T22:06:16.167Z,11.90
2019-05-17T22:09:21.303Z,11.91
2019-05-17T22:12:26.521Z,11.81
2019-05-17T22:15:31.673Z,11.81
2019-05-17T22:18:37.050Z,11.74
2019-05-17T22:21:42.150Z,11.68
2019-05-17T22:24:47.402Z,11.65
2019-05-17T22:27:52.508Z,11.58
2019-05-17T22:30:57.734Z,11.43
2019-05-17T22:34:02.916Z,11.45
2019-05-17T22:37:09.219Z,11.27
2019-05-17T22:40:14.462Z,11.19
2019-05-17T22:43:19.689Z,11.30
2019-05-17T22:46:35.619Z,11.27
2019-05-17T22:49:31.714Z,11.36
2019-05-17T22:52:36.879Z,11.29
2019-05-17T22:55:42.037Z,11.29
2019-05-17T22:58:47.174Z,11.35
2019-05-17T23:01:52.329Z,11.33
2019-05-17T23:04:57.549Z,11.27
2019-05-17T23:08:02.788Z,11.24
2019-05-17T23:11:08.118Z,11.22
2019-05-17T23:14:13.271Z,11.27
2019-05-17T23:17:18.388Z,11.24
2019-05-17T23:20:23.729Z,11.26
2019-05-17T23:23:28.891Z,11.21
2019-05-17T23:26:34.083Z,11.19
2019-05-17T23:29:41.181Z,11.16
2019-05-17T23:32:45.993Z,11.08
2019-05-17T23:35:51.229Z,11.00
2019-05-17T23:38:56.365Z,11.06
2019-05-17T23:42:01.590Z,11.01
2019-05-17T23:45:07.608Z,11.02
2019-05-17T23:48:12.793Z,10.94
2019-05-17T23:51:17.975Z,10.89
2019-05-17T23:54:23.149Z,10.82
2019-05-17T23:57:28.314Z,10.82
